Time;durP1;ratioP1;P1;durP2;ratioP2;P2;SDS_P1;SDS_P2;PMS_P1;PMS_P2;Temp;Humidity;BMP_temperature;BMP_pressure;BME280_temperature;BME280_humidity;BME280_pressure;Samples;Min_cycle;Max_cycle;Signal;HPM_P1;HPM_P2
2022/07/26 00:01:09;;;;;;;5.20;2.50;;;;;;;24.64;65.71;97964.63;4113987;28;21290;-81
2022/07/26 00:03:12;;;;;;;4.20;2.70;;;;;;;24.61;66.58;97971.34;4127146;28;20647;-80
2022/07/26 00:05:16;;;;;;;5.63;2.90;;;;;;;24.60;66.53;97965.22;4112445;28;20635;-80
2022/07/26 00:07:19;;;;;;;4.20;2.80;;;;;;;24.59;66.29;97965.41;4111263;28;21146;-80
2022/07/26 00:09:22;;;;;;;2.97;2.57;;;;;;;24.54;67.94;97968.66;4108463;28;20659;-81
2022/07/26 00:11:25;;;;;;;4.53;2.40;;;;;;;24.52;67.21;97967.19;4126399;28;20723;-80
2022/07/26 00:13:30;;;;;;;4.87;2.60;;;;;;;24.48;67.10;97966.75;4112666;28;20731;-80
2022/07/26 00:15:33;;;;;;;5.90;3.20;;;;;;;24.49;66.49;97970.25;4125788;28;20628;-80
2022/07/26 00:17:36;;;;;;;4.07;2.63;;;;;;;24.48;65.88;97979.28;4123559;28;20646;-80
2022/07/26 00:19:39;;;;;;;4.57;2.80;;;;;;;24.47;67.31;97983.78;4124815;28;20631;-80
2022/07/26 00:21:42;;;;;;;3.00;2.67;;;;;;;24.45;67.88;97980.47;4107772;28;20680;-82
2022/07/26 00:23:45;;;;;;;4.73;2.53;;;;;;;24.42;67.72;97980.88;4122416;28;20643;-83
2022/07/26 00:25:48;;;;;;;5.73;2.97;;;;;;;24.40;68.23;97987.41;4129600;28;20679;-80
2022/07/26 00:27:52;;;;;;;4.17;3.03;;;;;;;24.39;67.16;97996.44;4125914;28;20669;-81
2022/07/26 00:29:56;;;;;;;3.53;2.73;;;;;;;24.34;67.75;97989.03;4109404;28;21162;-80
2022/07/26 00:31:59;;;;;;;6.23;2.73;;;;;;;24.31;68.25;97985.84;4125985;28;20692;-82
2022/07/26 00:34:03;;;;;;;3.30;3.00;;;;;;;24.28;68.55;97987.09;4127082;28;24458;-81
2022/07/26 00:36:06;;;;;;;5.00;2.93;;;;;;;24.27;69.00;97984.59;4111731;28;20628;-81
2022/07/26 00:38:09;;;;;;;4.17;2.70;;;;;;;24.24;68.37;97993.81;4110174;28;20648;-82
2022/07/26 00:40:12;;;;;;;3.50;2.90;;;;;;;24.19;69.04;97985.56;4108120;28;21245;-81
2022/07/26 00:42:15;;;;;;;3.73;2.50;;;;;;;24.20;68.12;97981.06;4110703;28;20659;-81
2022/07/26 00:44:18;;;;;;;3.63;2.70;;;;;;;24.24;68.11;97983.13;4112504;28;20682;-81
2022/07/26 00:46:23;;;;;;;7.70;3.00;;;;;;;24.25;67.98;97979.47;4111472;28;20634;-81
2022/07/26 00:48:26;;;;;;;3.50;2.77;;;;;;;24.26;68.52;97974.94;4111569;28;20644;-81
2022/07/26 00:50:29;;;;;;;5.63;3.00;;;;;;;24.22;69.00;97979.84;4106122;28;21247;-81
2022/07/26 00:52:32;;;;;;;9.00;3.00;;;;;;;24.17;69.51;97978.75;4125643;28;21032;-81
2022/07/26 00:54:36;;;;;;;7.00;2.90;;;;;;;24.17;69.30;97976.91;4110248;28;21103;-81
2022/07/26 00:56:40;;;;;;;6.00;2.87;;;;;;;24.20;68.63;97981.88;4123037;28;20652;-81
2022/07/26 00:58:43;;;;;;;4.23;2.87;;;;;;;24.24;69.39;97983.13;4110102;28;21017;-81
2022/07/26 01:00:46;;;;;;;5.27;2.90;;;;;;;24.24;68.58;97996.47;4090953;29;20646;-81
2022/07/26 01:02:50;;;;;;;5.37;2.73;;;;;;;24.27;69.33;98001.44;4110626;28;20640;-81
2022/07/26 01:04:54;;;;;;;3.93;2.93;;;;;;;24.27;68.31;97997.94;4126341;28;20648;-81
2022/07/26 01:06:57;;;;;;;3.70;2.87;;;;;;;24.23;68.88;98012.66;4125859;28;20669;-81
2022/07/26 01:09:00;;;;;;;5.40;3.70;;;;;;;24.20;70.38;98015.72;4108577;28;20636;-81
2022/07/26 01:11:03;;;;;;;6.73;3.20;;;;;;;24.15;70.98;98021.63;4112005;28;20679;-81
2022/07/26 01:13:06;;;;;;;4.63;3.03;;;;;;;24.12;71.52;98028.38;4127814;28;20698;-81
2022/07/26 01:15:11;;;;;;;4.93;3.03;;;;;;;24.12;72.29;98031.84;4093331;28;20682;-81
2022/07/26 01:17:14;;;;;;;6.53;3.20;;;;;;;24.13;71.88;98043.31;4110297;28;20695;-81
2022/07/26 01:19:20;;;;;;;4.70;2.90;;;;;;;24.14;72.51;98042.31;4110935;28;20651;-81
2022/07/26 01:21:23;;;;;;;5.27;3.30;;;;;;;24.10;72.89;98052.56;4110032;28;20623;-81
2022/07/26 01:23:29;;;;;;;5.00;3.27;;;;;;;24.02;73.48;98051.84;4107148;28;20637;-81
2022/07/26 01:25:36;;;;;;;3.43;2.80;;;;;;;23.96;75.07;98055.25;4123669;28;20649;-81
2022/07/26 01:27:45;;;;;;;3.53;3.00;;;;;;;23.89;75.86;98057.84;4107343;28;20709;-83
2022/07/26 01:29:50;;;;;;;4.27;2.50;;;;;;;23.83;74.21;98077.25;4113652;28;20649;-82
2022/07/26 01:31:54;;;;;;;4.93;3.07;;;;;;;23.75;76.08;98085.38;4112782;28;20639;-82
2022/07/26 01:33:57;;;;;;;4.17;3.33;;;;;;;23.71;77.46;98088.59;4107577;28;20714;-81
2022/07/26 01:36:00;;;;;;;5.87;3.77;;;;;;;23.60;79.38;98097.00;4124660;28;20643;-81
2022/07/26 01:38:03;;;;;;;8.83;3.23;;;;;;;23.43;80.43;98098.19;4123740;28;20641;-81
2022/07/26 01:40:10;;;;;;;6.47;3.60;;;;;;;23.30;80.81;98082.06;4108251;28;20746;-81
2022/07/26 01:42:13;;;;;;;8.00;3.37;;;;;;;23.19;81.42;98085.16;4111671;28;20682;-81
2022/07/26 01:44:16;;;;;;;4.43;3.33;;;;;;;23.04;81.85;98085.34;4112644;28;20655;-81
2022/07/26 01:46:19;;;;;;;5.20;3.10;;;;;;;22.95;83.24;98081.91;4111899;28;20690;-81
2022/07/26 01:48:22;;;;;;;6.23;3.40;;;;;;;22.88;83.71;98083.63;4125222;28;20637;-81
2022/07/26 01:50:25;;;;;;;4.80;3.37;;;;;;;22.82;84.20;98080.84;4107382;28;21249;-81
2022/07/26 01:52:28;;;;;;;5.33;3.40;;;;;;;22.77;84.25;98078.72;4126905;28;20650;-81
2022/07/26 01:54:32;;;;;;;3.47;3.17;;;;;;;22.73;84.76;98065.97;4113268;28;20681;-81
2022/07/26 01:56:36;;;;;;;4.90;3.37;;;;;;;22.67;84.23;98064.03;4110446;28;20656;-81
2022/07/26 01:58:39;;;;;;;6.30;3.10;;;;;;;22.59;83.96;98045.50;4107063;28;21065;-81
2022/07/26 02:00:42;;;;;;;3.90;2.80;;;;;;;22.55;84.39;98035.41;4122664;28;20653;-81
2022/07/26 02:02:45;;;;;;;3.90;2.90;;;;;;;22.43;84.88;98028.84;4111009;28;20688;-81
2022/07/26 02:05:01;;;;;;;4.63;2.83;;;;;;;22.32;83.91;98019.47;4108953;28;20653;-82
2022/07/26 02:07:04;;;;;;;5.47;2.97;;;;;;;22.25;84.07;98029.19;4114112;28;20655;-81
2022/07/26 02:09:15;;;;;;;4.20;3.17;;;;;;;22.19;84.61;98014.91;4088257;28;20715;-81
2022/07/26 02:11:18;;;;;;;7.27;3.43;;;;;;;22.14;85.06;98018.09;4124816;28;20649;-81
2022/07/26 02:13:23;;;;;;;6.50;3.20;;;;;;;22.07;85.30;98021.63;4108292;28;20805;-81
2022/07/26 02:15:26;;;;;;;4.77;2.93;;;;;;;22.02;86.19;98016.03;4123398;28;21107;-81
2022/07/26 02:17:29;;;;;;;4.73;3.30;;;;;;;22.01;86.44;98025.00;4109258;28;20650;-81
2022/07/26 02:19:32;;;;;;;4.57;3.07;;;;;;;21.95;86.27;98017.75;4123999;28;21032;-81
2022/07/26 02:21:35;;;;;;;5.03;3.13;;;;;;;21.91;85.84;98014.63;4124132;28;20713;-81
2022/07/26 02:23:38;;;;;;;4.80;3.40;;;;;;;21.92;86.46;98024.25;4109722;28;20653;-81
2022/07/26 02:25:44;;;;;;;4.23;3.40;;;;;;;21.91;86.71;98019.94;4125989;28;21087;-81
2022/07/26 02:27:47;;;;;;;5.40;3.13;;;;;;;21.92;87.40;98021.59;4110566;28;20646;-81
2022/07/26 02:29:51;;;;;;;4.83;3.30;;;;;;;21.92;87.62;98026.91;4105923;28;20638;-81
2022/07/26 02:31:55;;;;;;;4.83;3.40;;;;;;;21.91;87.73;98029.75;4124048;28;20644;-81
2022/07/26 02:33:58;;;;;;;4.17;3.77;;;;;;;21.93;88.24;98025.06;4107138;28;20640;-81
2022/07/26 02:36:01;;;;;;;5.43;3.87;;;;;;;21.93;87.91;98020.56;4107996;28;20715;-81
2022/07/26 02:38:05;;;;;;;3.53;3.07;;;;;;;21.89;88.44;98019.28;4111720;28;20637;-81
2022/07/26 02:40:10;;;;;;;3.57;3.10;;;;;;;21.86;89.61;98022.28;4121728;28;20633;-81
2022/07/26 02:42:20;;;;;;;5.67;3.67;;;;;;;21.86;89.93;98016.13;4124903;28;21028;-81
2022/07/26 02:44:24;;;;;;;5.00;3.70;;;;;;;21.84;89.24;98028.78;4108294;28;20658;-81
2022/07/26 02:46:28;;;;;;;4.97;3.60;;;;;;;21.81;89.77;98024.66;4104623;28;20981;-81
2022/07/26 02:48:31;;;;;;;4.10;3.23;;;;;;;21.80;90.44;98025.66;4109951;28;20744;-81
2022/07/26 02:50:35;;;;;;;3.50;3.17;;;;;;;21.80;90.21;98030.16;4124429;28;20642;-81
2022/07/26 02:52:38;;;;;;;6.00;3.90;;;;;;;21.79;89.84;98020.50;4123489;28;20986;-81
2022/07/26 02:54:41;;;;;;;5.53;4.10;;;;;;;21.76;89.12;98027.00;4126805;28;21070;-81
2022/07/26 02:56:44;;;;;;;4.07;3.67;;;;;;;21.74;90.34;98038.81;4107565;28;20759;-81
2022/07/26 02:58:47;;;;;;;6.03;4.00;;;;;;;21.72;90.25;98037.31;4125640;28;20632;-81
2022/07/26 03:00:50;;;;;;;6.23;4.00;;;;;;;21.71;90.30;98033.84;4108606;28;20680;-81
2022/07/26 03:02:54;;;;;;;4.57;3.40;;;;;;;21.69;90.02;98025.22;4125876;28;20644;-81
2022/07/26 03:04:58;;;;;;;6.50;3.50;;;;;;;21.66;89.93;98036.19;4126189;28;20697;-81
2022/07/26 03:07:01;;;;;;;4.20;3.20;;;;;;;21.64;90.93;98034.72;4110887;28;21032;-81
2022/07/26 03:09:19;;;;;;;4.10;3.33;;;;;;;21.60;90.06;98036.88;4084392;28;21011;-81
2022/07/26 03:11:23;;;;;;;4.40;3.50;;;;;;;21.57;90.36;98033.75;4109628;28;20701;-81
2022/07/26 03:13:26;;;;;;;7.10;3.77;;;;;;;21.56;90.20;98032.94;4122796;28;21223;-81
2022/07/26 03:15:29;;;;;;;4.80;3.50;;;;;;;21.58;90.90;98028.28;4125222;28;20703;-81
2022/07/26 03:17:32;;;;;;;5.43;3.63;;;;;;;21.59;90.20;98031.75;4110212;28;20774;-81
2022/07/26 03:19:36;;;;;;;4.10;3.30;;;;;;;21.59;90.01;98031.75;4093567;28;20640;-81
2022/07/26 03:21:39;;;;;;;4.37;3.93;;;;;;;21.56;90.04;98024.13;4108418;28;21002;-80
2022/07/26 03:23:42;;;;;;;4.60;3.70;;;;;;;21.53;90.77;98025.31;4124689;28;20635;-81
2022/07/26 03:25:45;;;;;;;4.10;3.40;;;;;;;21.47;89.03;98026.00;4107638;28;20631;-81
2022/07/26 03:27:48;;;;;;;4.07;3.67;;;;;;;21.43;90.23;98024.66;4107627;28;20642;-81
2022/07/26 03:29:51;;;;;;;6.50;3.33;;;;;;;21.43;89.90;98029.97;4123463;28;20657;-81
2022/07/26 03:31:54;;;;;;;5.27;3.30;;;;;;;21.42;90.18;98032.78;4107026;28;20656;-81
2022/07/26 03:33:58;;;;;;;3.50;3.17;;;;;;;21.40;89.92;98027.66;4107318;28;20637;-80
2022/07/26 03:36:07;;;;;;;5.53;3.30;;;;;;;21.40;89.07;98037.47;4122935;28;20663;-81
2022/07/26 03:38:17;;;;;;;4.27;3.43;;;;;;;21.36;89.65;98044.09;4107179;28;20673;-81
2022/07/26 03:40:20;;;;;;;4.03;3.10;;;;;;;21.33;90.16;98049.75;4126114;28;21081;-81
2022/07/26 03:42:23;;;;;;;3.23;2.77;;;;;;;21.29;88.74;98045.81;4127514;28;21473;-81
2022/07/26 03:44:26;;;;;;;3.30;2.70;;;;;;;21.22;89.22;98047.47;4125141;28;20635;-81
2022/07/26 03:46:29;;;;;;;4.20;3.30;;;;;;;21.16;89.99;98045.50;4127482;28;20637;-81
2022/07/26 03:48:33;;;;;;;3.10;2.80;;;;;;;21.16;87.96;98047.34;4128275;28;20711;-81
2022/07/26 03:50:39;;;;;;;5.10;3.10;;;;;;;21.15;89.51;98051.00;4112404;28;21058;-81
2022/07/26 03:52:43;;;;;;;5.13;3.10;;;;;;;21.13;90.18;98053.81;4129499;28;20672;-80
2022/07/26 03:54:46;;;;;;;4.20;3.43;;;;;;;21.07;89.88;98054.50;4108939;28;20638;-81
2022/07/26 03:56:48;;;;;;;6.40;3.33;;;;;;;21.05;89.64;98050.34;4127403;28;20688;-81
2022/07/26 03:58:51;;;;;;;4.53;2.70;;;;;;;21.03;90.04;98057.66;4110571;28;20669;-81
2022/07/26 04:00:54;;;;;;;5.20;3.07;;;;;;;21.02;89.47;98050.72;4124810;28;20637;-81
2022/07/26 04:02:58;;;;;;;5.43;3.00;;;;;;;20.99;88.51;98061.66;4112454;28;21010;-81
2022/07/26 04:05:01;;;;;;;4.00;3.17;;;;;;;20.99;89.31;98056.34;4109771;28;21210;-81
2022/07/26 04:07:04;;;;;;;6.13;3.43;;;;;;;20.96;90.78;98060.16;4126480;28;20665;-81
2022/07/26 04:09:08;;;;;;;4.00;3.60;;;;;;;20.98;91.12;98057.34;4109395;28;20649;-81
2022/07/26 04:11:12;;;;;;;4.03;3.50;;;;;;;20.97;91.00;98059.19;4126308;28;21220;-81
2022/07/26 04:13:15;;;;;;;6.97;4.93;;;;;;;20.97;89.63;98055.69;4125932;28;20644;-81
2022/07/26 04:15:20;;;;;;;8.47;6.30;;;;;;;20.97;90.45;98058.31;4108537;28;21103;-81
2022/07/26 04:17:23;;;;;;;8.70;6.30;;;;;;;20.96;90.53;98056.69;4109959;28;20633;-80
2022/07/26 04:19:26;;;;;;;8.50;6.83;;;;;;;20.95;89.46;98049.72;4109198;28;20656;-81
2022/07/26 04:21:29;;;;;;;7.10;5.17;;;;;;;20.96;89.71;98056.69;4114257;28;20703;-81
2022/07/26 04:23:32;;;;;;;8.03;4.70;;;;;;;20.97;91.11;98055.69;4127049;28;20633;-81
2022/07/26 04:25:36;;;;;;;5.37;3.90;;;;;;;20.94;89.08;98058.66;4110005;28;20636;-80
2022/07/26 04:27:43;;;;;;;5.50;4.40;;;;;;;20.95;89.03;98060.34;4111274;28;20660;-80
2022/07/26 04:29:46;;;;;;;4.40;3.90;;;;;;;20.96;88.38;98062.81;4128662;28;20660;-81
2022/07/26 04:31:49;;;;;;;6.67;4.00;;;;;;;20.96;89.72;98062.81;4125187;28;21258;-81
2022/07/26 04:33:52;;;;;;;7.40;4.60;;;;;;;20.98;89.63;98065.31;4125485;28;20674;-81
2022/07/26 04:35:55;;;;;;;8.97;4.70;;;;;;;20.99;89.29;98066.97;4127913;28;20663;-81
2022/07/26 04:37:58;;;;;;;7.80;3.97;;;;;;;20.99;89.59;98072.28;4109076;28;20693;-81
2022/07/26 04:40:02;;;;;;;8.07;4.33;;;;;;;21.00;90.40;98076.56;4112049;28;21280;-80
2022/07/26 04:42:07;;;;;;;6.07;4.77;;;;;;;21.03;90.25;98079.72;4108082;28;20638;-81
2022/07/26 04:44:10;;;;;;;5.47;4.67;;;;;;;21.06;91.12;98073.22;4107863;28;20653;-81
2022/07/26 04:46:13;;;;;;;6.27;4.43;;;;;;;21.08;91.02;98076.53;4123018;28;21366;-81
2022/07/26 04:48:17;;;;;;;7.20;4.57;;;;;;;21.11;91.13;98078.84;4107172;28;20649;-81
2022/07/26 04:50:21;;;;;;;7.70;4.63;;;;;;;21.13;90.58;98075.03;4124566;28;20641;-81
2022/07/26 04:52:24;;;;;;;5.07;4.07;;;;;;;21.16;89.29;98079.19;4107622;28;20637;-81
2022/07/26 04:54:27;;;;;;;6.07;4.87;;;;;;;21.18;89.17;98085.13;4108367;28;21551;-81
2022/07/26 04:56:30;;;;;;;5.77;5.00;;;;;;;21.15;90.18;98080.16;4109842;28;24037;-80
2022/07/26 04:58:35;;;;;;;4.93;4.40;;;;;;;21.16;91.12;98089.81;4125265;28;21048;-81
2022/07/26 05:00:38;;;;;;;5.33;3.97;;;;;;;21.17;90.54;98092.28;4110111;28;20634;-81
2022/07/26 05:03:02;;;;;;;4.73;3.60;;;;;;;21.20;90.14;98086.63;4109348;28;20630;-81
2022/07/26 05:05:06;;;;;;;4.90;4.13;;;;;;;21.20;91.24;98091.94;4110675;28;20669;-81
2022/07/26 05:07:09;;;;;;;4.90;3.90;;;;;;;21.21;91.58;98093.59;4127979;28;20654;-81
2022/07/26 05:09:12;;;;;;;4.60;3.90;;;;;;;21.23;91.63;98093.41;4123972;28;20636;-81
2022/07/26 05:11:16;;;;;;;5.30;3.90;;;;;;;21.26;91.43;98093.06;4109830;28;20645;-81
2022/07/26 05:13:19;;;;;;;8.57;3.73;;;;;;;21.27;91.01;98099.06;4124875;28;21030;-80
2022/07/26 05:15:35;;;;;;;4.50;4.03;;;;;;;21.37;91.74;98090.88;4127728;28;21093;-81
2022/07/26 05:17:39;;;;;;;4.83;4.30;;;;;;;21.48;91.67;98096.66;4108344;28;21061;-81
2022/07/26 05:19:42;;;;;;;9.93;3.50;;;;;;;21.57;90.71;98095.63;4110561;28;20635;-80
2022/07/26 05:21:51;;;;;;;3.90;3.50;;;;;;;21.65;89.88;98097.44;4110073;28;20717;-82
2022/07/26 05:23:54;;;;;;;7.30;4.00;;;;;;;21.78;91.83;98087.91;4124229;28;21226;-81
2022/07/26 05:25:57;;;;;;;4.43;3.90;;;;;;;21.90;92.11;98097.16;4116256;28;20629;-82
2022/07/26 05:28:00;;;;;;;4.40;3.87;;;;;;;21.99;91.40;98096.91;4105195;28;21079;-81
2022/07/26 05:30:04;;;;;;;4.67;3.30;;;;;;;22.03;90.51;98100.06;4092329;28;20636;-81
2022/07/26 05:32:08;;;;;;;5.73;4.30;;;;;;;22.05;89.43;98106.84;4122429;28;20637;-81
2022/07/26 05:34:13;;;;;;;5.10;4.20;;;;;;;22.11;90.23;98100.00;4123449;28;20646;-85
2022/07/26 05:36:16;;;;;;;5.03;4.10;;;;;;;22.14;91.07;98103.13;4109184;28;20662;-85
2022/07/26 05:38:19;;;;;;;4.50;4.00;;;;;;;22.19;91.58;98107.94;4111781;28;20643;-84
2022/07/26 05:40:22;;;;;;;4.70;4.13;;;;;;;22.26;90.84;98107.09;4109484;28;20608;-84
2022/07/26 05:42:25;;;;;;;5.53;3.93;;;;;;;22.37;89.91;98114.63;4121212;28;20649;-84
2022/07/26 05:44:29;;;;;;;4.67;4.00;;;;;;;22.45;88.87;98111.94;4108143;28;20632;-84
2022/07/26 05:46:32;;;;;;;4.67;4.20;;;;;;;22.50;87.90;98110.38;4108611;28;20670;-86
2022/07/26 05:48:37;;;;;;;4.17;3.77;;;;;;;22.50;88.20;98106.91;4086927;28;21878;-86
2022/07/26 05:50:40;;;;;;;6.93;3.57;;;;;;;22.46;89.13;98109.09;4108374;28;20645;-81
2022/07/26 05:52:43;;;;;;;5.70;4.67;;;;;;;22.45;89.40;98110.09;4105233;28;20653;-81
2022/07/26 05:54:46;;;;;;;4.50;4.00;;;;;;;22.47;89.69;98116.06;4110200;28;20642;-81
2022/07/26 05:56:49;;;;;;;5.07;4.47;;;;;;;22.50;89.39;98107.72;4124840;28;20659;-81
2022/07/26 05:58:52;;;;;;;6.07;4.60;;;;;;;22.58;89.59;98113.00;4110800;28;20717;-81
2022/07/26 06:00:55;;;;;;;5.97;4.70;;;;;;;22.64;89.52;98114.94;4121709;28;21013;-81
2022/07/26 06:02:58;;;;;;;5.27;4.57;;;;;;;22.96;88.65;98117.38;4091897;28;20683;-82
2022/07/26 06:05:03;;;;;;;5.80;4.30;;;;;;;23.10;86.82;98119.22;4093649;28;20683;-82
2022/07/26 06:07:06;;;;;;;4.93;4.03;;;;;;;23.31;87.48;98115.66;4123218;28;20666;-81
2022/07/26 06:09:09;;;;;;;7.47;4.17;;;;;;;23.66;87.27;98114.94;4110523;28;20644;-81
2022/07/26 06:11:13;;;;;;;5.03;4.00;;;;;;;24.06;85.81;98128.56;4124119;28;20634;-81
2022/07/26 06:13:16;;;;;;;4.50;3.87;;;;;;;24.44;84.30;98122.88;4124817;28;20681;-81
2022/07/26 06:15:19;;;;;;;4.90;3.50;;;;;;;24.81;83.38;98126.13;4109436;28;20643;-81
2022/07/26 06:17:22;;;;;;;4.30;3.63;;;;;;;25.12;81.06;98123.94;4111568;28;20657;-81
2022/07/26 06:19:26;;;;;;;4.50;3.13;;;;;;;25.40;79.56;98120.22;4124619;28;20645;-82
2022/07/26 06:21:30;;;;;;;4.07;3.30;;;;;;;25.70;79.20;98125.16;4108230;28;20643;-82
2022/07/26 06:23:33;;;;;;;5.27;3.23;;;;;;;25.92;78.09;98129.41;4093521;28;20660;-82
2022/07/26 06:25:37;;;;;;;3.83;3.40;;;;;;;26.10;77.09;98121.66;4106717;28;20679;-82
2022/07/26 06:27:40;;;;;;;4.03;3.53;;;;;;;26.24;77.15;98132.19;4123428;28;20631;-81
2022/07/26 06:29:43;;;;;;;3.60;3.30;;;;;;;26.42;75.01;98129.00;4123155;28;21222;-82
2022/07/26 06:31:46;;;;;;;4.30;3.80;;;;;;;26.57;75.72;98135.81;4126225;28;20646;-82
2022/07/26 06:33:50;;;;;;;6.27;4.20;;;;;;;26.71;74.94;98126.78;4127270;28;20678;-82
2022/07/26 06:35:53;;;;;;;8.40;3.30;;;;;;;26.90;75.25;98132.19;4124854;28;20619;-82
2022/07/26 06:37:58;;;;;;;4.80;3.40;;;;;;;27.11;74.17;98132.81;4123148;28;20669;-82
2022/07/26 06:40:01;;;;;;;5.60;3.83;;;;;;;27.27;73.54;98135.06;4120850;28;21206;-82
2022/07/26 06:42:04;;;;;;;9.33;3.90;;;;;;;27.42;73.07;98130.28;4126109;28;20632;-82
2022/07/26 06:44:07;;;;;;;8.03;3.43;;;;;;;27.54;72.29;98136.69;4107776;28;21028;-82
2022/07/26 06:46:11;;;;;;;7.37;3.80;;;;;;;27.65;71.64;98128.03;4124620;28;20653;-82
2022/07/26 06:48:14;;;;;;;6.30;3.47;;;;;;;27.78;71.09;98130.66;4104611;28;20637;-83
2022/07/26 06:50:18;;;;;;;4.90;3.80;;;;;;;27.52;71.43;98127.22;4123644;28;20641;-82
2022/07/26 06:52:27;;;;;;;4.90;3.17;;;;;;;27.62;72.16;98125.78;4121420;28;20635;-82
2022/07/26 06:54:32;;;;;;;5.17;3.40;;;;;;;27.73;70.79;98123.25;4125231;28;20683;-82
2022/07/26 06:56:35;;;;;;;4.93;2.97;;;;;;;27.94;68.95;98136.38;4105656;28;21622;-82
2022/07/26 06:58:38;;;;;;;6.00;3.03;;;;;;;28.14;69.46;98137.16;4128617;28;20656;-82
2022/07/26 07:00:41;;;;;;;5.00;3.13;;;;;;;28.30;68.20;98128.63;4107343;28;20641;-82
2022/07/26 07:02:44;;;;;;;5.13;2.90;;;;;;;28.43;67.54;98128.56;4119055;28;20639;-84
2022/07/26 07:04:47;;;;;;;4.57;2.60;;;;;;;28.60;67.35;98134.03;4125754;28;21069;-82
2022/07/26 07:06:51;;;;;;;4.30;2.90;;;;;;;28.79;67.48;98134.97;4111188;28;20673;-82
2022/07/26 07:08:54;;;;;;;4.70;2.90;;;;;;;28.88;67.39;98136.34;4122981;28;20741;-82
2022/07/26 07:11:00;;;;;;;3.50;2.87;;;;;;;28.99;65.96;98131.91;4106697;28;20663;-82
2022/07/26 07:13:03;;;;;;;5.23;3.07;;;;;;;29.01;65.73;98129.81;4109834;28;20638;-82
2022/07/26 07:15:07;;;;;;;3.17;2.47;;;;;;;29.15;66.08;98141.28;4103631;28;20638;-83
2022/07/26 07:17:11;;;;;;;4.23;2.67;;;;;;;29.18;63.91;98133.63;4107693;28;20751;-83
2022/07/26 07:19:21;;;;;;;4.03;2.60;;;;;;;29.29;64.59;98130.25;4107635;28;20634;-82
2022/07/26 07:21:25;;;;;;;4.60;2.67;;;;;;;29.30;63.69;98129.19;4128325;28;20635;-82
2022/07/26 07:23:28;;;;;;;4.13;2.77;;;;;;;29.35;63.95;98124.00;4110563;28;20649;-82
2022/07/26 07:25:31;;;;;;;4.57;2.70;;;;;;;29.42;63.56;98127.44;4110920;28;20620;-82
2022/07/26 07:27:35;;;;;;;4.60;2.60;;;;;;;29.49;62.00;98120.13;4115142;28;21163;-82
2022/07/26 07:29:40;;;;;;;3.43;2.60;;;;;;;29.56;61.87;98118.22;4112668;28;20733;-82
2022/07/26 07:31:46;;;;;;;4.10;2.87;;;;;;;29.71;63.05;98118.63;4129809;28;20639;-82
2022/07/26 07:33:51;;;;;;;4.90;2.30;;;;;;;29.88;62.10;98119.75;4126730;28;21228;-82
2022/07/26 07:35:55;;;;;;;3.87;2.60;;;;;;;29.92;60.21;98118.22;4113023;28;20999;-82
2022/07/26 07:37:59;;;;;;;3.73;2.50;;;;;;;30.00;61.70;98116.88;4123207;28;20765;-82
2022/07/26 07:40:03;;;;;;;4.10;2.63;;;;;;;30.08;59.90;98121.97;4108549;28;20680;-82
2022/07/26 07:42:06;;;;;;;5.67;2.50;;;;;;;30.21;60.61;98119.13;4125019;28;20658;-82
2022/07/26 07:44:11;;;;;;;4.53;2.30;;;;;;;30.28;58.88;98124.41;4094816;28;20762;-82
2022/07/26 07:46:14;;;;;;;3.03;2.17;;;;;;;30.43;58.36;98123.81;4111873;28;20660;-82
2022/07/26 07:48:17;;;;;;;2.93;1.97;;;;;;;30.43;57.39;98129.22;4113354;28;20624;-82
2022/07/26 07:50:20;;;;;;;4.30;2.20;;;;;;;30.15;57.58;98113.81;4128321;28;20642;-82
2022/07/26 07:52:29;;;;;;;3.03;2.40;;;;;;;30.03;57.71;98110.25;4129214;28;20635;-82
2022/07/26 07:54:32;;;;;;;2.57;1.80;;;;;;;30.10;57.80;98108.28;4124845;28;20639;-82
2022/07/26 07:56:35;;;;;;;4.23;2.13;;;;;;;30.27;57.20;98112.00;4106908;28;20648;-83
2022/07/26 07:58:38;;;;;;;2.80;2.10;;;;;;;30.20;56.17;98105.88;4106449;28;20671;-83
2022/07/26 08:00:43;;;;;;;4.73;2.47;;;;;;;30.00;57.21;98105.31;4131922;28;20661;-82
2022/07/26 08:02:46;;;;;;;4.63;3.23;;;;;;;30.05;57.30;98110.81;4112918;28;21051;-82
2022/07/26 08:04:50;;;;;;;4.30;2.07;;;;;;;30.18;56.43;98106.09;4121614;28;20628;-82
2022/07/26 08:06:53;;;;;;;3.63;2.03;;;;;;;29.91;56.71;98097.78;4118802;28;20669;-82
2022/07/26 08:08:56;;;;;;;4.30;2.17;;;;;;;30.02;57.03;98101.31;4113730;28;20659;-82
2022/07/26 08:10:59;;;;;;;5.17;2.10;;;;;;;30.38;55.91;98109.38;4111928;28;20737;-82
2022/07/26 08:13:03;;;;;;;4.17;1.83;;;;;;;30.63;55.84;98100.09;4109494;28;20625;-82
2022/07/26 08:15:07;;;;;;;4.53;2.07;;;;;;;30.62;55.04;98097.63;4107173;28;20733;-82
2022/07/26 08:17:12;;;;;;;3.77;2.03;;;;;;;30.67;55.79;98093.22;4107136;28;20636;-82
2022/07/26 08:19:15;;;;;;;3.87;2.20;;;;;;;30.70;55.14;98102.69;4129678;28;20686;-82
2022/07/26 08:21:19;;;;;;;2.83;1.80;;;;;;;30.95;53.53;98106.91;4118664;28;20654;-82
2022/07/26 08:23:22;;;;;;;3.43;1.80;;;;;;;31.15;54.49;98119.00;4128968;28;20685;-82
2022/07/26 08:25:25;;;;;;;2.20;1.60;;;;;;;30.83;53.24;98107.91;4122944;28;21286;-82
2022/07/26 08:27:28;;;;;;;7.10;3.30;;;;;;;30.39;53.84;98100.25;4117755;28;20675;-82
2022/07/26 08:29:32;;;;;;;3.57;2.07;;;;;;;30.52;54.52;98100.06;4112939;28;20670;-82
2022/07/26 08:31:35;;;;;;;2.20;1.63;;;;;;;30.37;52.77;98094.28;4132074;28;20634;-82
2022/07/26 08:33:39;;;;;;;2.53;1.73;;;;;;;30.24;53.35;98101.69;4111674;28;20636;-82
2022/07/26 08:35:48;;;;;;;2.33;1.60;;;;;;;29.81;52.99;98098.28;4112315;28;20682;-82
2022/07/26 08:37:51;;;;;;;2.40;1.53;;;;;;;29.38;54.80;98093.97;4113958;28;20628;-82
2022/07/26 08:39:55;;;;;;;5.23;2.40;;;;;;;28.99;55.69;98098.84;4111369;28;20630;-82
2022/07/26 08:41:59;;;;;;;4.97;1.80;;;;;;;28.74;56.69;98108.75;4112777;28;21416;-82
2022/07/26 08:44:06;;;;;;;2.30;1.60;;;;;;;29.07;55.35;98099.38;4112111;28;20632;-82
2022/07/26 08:46:09;;;;;;;3.50;2.10;;;;;;;29.53;54.64;98102.50;4127373;28;20637;-82
2022/07/26 08:48:13;;;;;;;3.33;1.60;;;;;;;29.39;54.22;98098.28;4097866;28;20629;-82
2022/07/26 08:50:22;;;;;;;2.50;1.80;;;;;;;29.26;55.68;98097.59;4113885;28;20630;-82
2022/07/26 08:52:25;;;;;;;3.30;1.90;;;;;;;29.54;54.70;98102.28;4107199;28;20640;-82
2022/07/26 08:54:28;;;;;;;2.63;1.60;;;;;;;29.84;54.08;98108.59;4121128;28;21253;-82
2022/07/26 08:56:31;;;;;;;3.33;1.60;;;;;;;29.63;53.63;98097.41;4107717;28;21430;-82
2022/07/26 08:58:35;;;;;;;4.60;1.70;;;;;;;29.22;53.43;98101.75;4108840;28;20721;-82
2022/07/26 09:00:40;;;;;;;2.73;1.50;;;;;;;28.81;54.86;98106.84;4111088;28;20724;-82
2022/07/26 09:02:43;;;;;;;4.73;3.00;;;;;;;28.54;54.29;98104.53;4111181;28;20640;-82
2022/07/26 09:04:46;;;;;;;3.80;1.90;;;;;;;28.89;55.32;98113.81;4114349;28;20739;-83
2022/07/26 09:07:04;;;;;;;4.10;2.90;;;;;;;28.92;54.14;98113.38;4094917;28;20767;-82
2022/07/26 09:09:11;;;;;;;4.13;1.93;;;;;;;28.68;54.18;98117.69;4126206;28;20639;-83
2022/07/26 09:11:32;;;;;;;2.80;1.60;;;;;;;28.34;55.02;98101.16;4111222;28;20643;-83
2022/07/26 09:13:50;;;;;;;7.70;1.70;;;;;;;28.10;55.58;98101.03;4123453;28;21305;-82
2022/07/26 09:16:08;;;;;;;2.73;1.50;;;;;;;28.33;54.80;98112.09;4109573;28;20629;-84
2022/07/26 09:18:25;;;;;;;4.90;1.60;;;;;;;28.83;55.74;98117.38;4110843;28;21447;-82
2022/07/26 09:20:30;;;;;;;2.80;1.40;;;;;;;29.19;54.65;98119.13;4090979;28;20632;-84
2022/07/26 09:22:35;;;;;;;3.30;1.40;;;;;;;29.51;53.40;98120.72;4096144;28;20665;-84
2022/07/26 09:24:41;;;;;;;2.20;1.30;;;;;;;29.65;52.82;98122.22;4111628;28;20708;-85
2022/07/26 09:26:55;;;;;;;1.90;1.40;;;;;;;29.20;53.80;98112.72;4110888;28;20735;-85
2022/07/26 09:29:03;;;;;;;5.40;1.50;;;;;;;29.00;54.23;98121.97;4128881;28;20644;-85
2022/07/26 09:31:07;;;;;;;3.03;1.63;;;;;;;29.29;53.91;98122.19;4128020;28;20669;-86
2022/07/26 09:33:10;;;;;;;3.13;1.80;;;;;;;29.22;51.15;98105.25;4126929;28;21000;-85
2022/07/26 09:35:15;;;;;;;2.93;1.33;;;;;;;28.91;52.64;98117.91;4112260;28;20643;-85
2022/07/26 09:37:42;;;;;;;1.77;1.50;;;;;;;29.16;52.33;98126.81;4110034;28;20726;-85
2022/07/26 09:39:56;;;;;;;4.47;1.70;;;;;;;29.44;51.89;98129.91;4112055;28;20658;-85
2022/07/26 09:42:06;;;;;;;2.10;1.50;;;;;;;29.65;52.02;98130.28;4107865;28;20639;-84
2022/07/26 09:44:30;;;;;;;3.70;1.53;;;;;;;29.82;51.95;98124.16;4111672;28;20632;-85
2022/07/26 09:46:34;;;;;;;3.00;1.40;;;;;;;29.89;51.31;98124.06;4127626;28;21082;-84